Time;durP1;ratioP1;P1;durP2;ratioP2;P2;SDS_P1;SDS_P2;PMS_P1;PMS_P2;Temp;Humidity;BMP_temperature;BMP_pressure;BME280_temperature;BME280_humidity;BME280_pressure;Samples;Min_cycle;Max_cycle;Signal;HPM_P1;HPM_P2
2022/06/26 00:01:01;;;;;;;0.30;0.30;;;16.90;99.90;;;;;;5051043;28;20175;-77
2022/06/26 00:03:27;;;;;;;0.40;0.40;;;16.90;99.90;;;;;;5051400;28;20206;-76
2022/06/26 00:05:53;;;;;;;0.40;0.40;;;16.90;99.90;;;;;;5051555;28;20225;-76
2022/06/26 00:08:19;;;;;;;0.40;0.40;;;16.90;99.90;;;;;;5051507;28;20175;-76
2022/06/26 00:10:47;;;;;;;0.30;0.30;;;16.80;99.90;;;;;;5051369;28;20179;-77
2022/06/26 00:13:13;;;;;;;0.30;0.30;;;16.90;99.90;;;;;;5051186;28;20677;-76
2022/06/26 00:15:39;;;;;;;0.43;0.43;;;16.90;99.90;;;;;;5051507;28;20182;-77
2022/06/26 00:18:05;;;;;;;0.30;0.30;;;16.90;99.90;;;;;;5051017;28;20175;-77
2022/06/26 00:20:31;;;;;;;0.30;0.30;;;16.90;99.90;;;;;;5050878;28;20182;-77
2022/06/26 00:22:57;;;;;;;0.30;0.30;;;16.90;99.90;;;;;;5051197;28;20207;-77
2022/06/26 00:25:22;;;;;;;0.30;0.30;;;16.90;99.90;;;;;;5051220;28;20172;-77
2022/06/26 00:27:48;;;;;;;0.30;0.30;;;16.90;99.90;;;;;;5051305;28;20187;-76
2022/06/26 00:30:14;;;;;;;0.20;0.20;;;16.90;99.90;;;;;;5050957;28;20632;-76
2022/06/26 00:32:40;;;;;;;0.30;0.30;;;17.00;99.90;;;;;;5051324;28;20187;-77
2022/06/26 00:35:07;;;;;;;0.40;0.40;;;17.00;99.90;;;;;;5051215;28;20195;-77
2022/06/26 00:37:32;;;;;;;0.30;0.30;;;16.90;99.90;;;;;;5050985;28;20235;-76
2022/06/26 00:39:58;;;;;;;0.40;0.40;;;17.00;99.90;;;;;;5051185;28;20172;-76
2022/06/26 00:42:23;;;;;;;0.40;0.40;;;17.00;99.90;;;;;;5050875;28;20207;-76
2022/06/26 00:44:52;;;;;;;0.30;0.30;;;17.00;99.90;;;;;;5051047;28;20182;-76
2022/06/26 00:47:18;;;;;;;0.30;0.30;;;17.00;99.90;;;;;;5051163;28;20654;-76
2022/06/26 00:49:44;;;;;;;0.40;0.40;;;17.00;99.90;;;;;;5050712;28;20183;-76
2022/06/26 00:52:11;;;;;;;0.30;0.30;;;17.00;99.90;;;;;;5050953;28;20195;-76
2022/06/26 00:54:37;;;;;;;0.30;0.30;;;17.00;99.90;;;;;;5051036;28;20191;-76
2022/06/26 00:57:03;;;;;;;0.30;0.30;;;17.00;99.90;;;;;;5050785;28;20668;-76
2022/06/26 00:59:30;;;;;;;0.30;0.30;;;17.00;99.90;;;;;;5050695;28;20214;-76
2022/06/26 01:01:56;;;;;;;0.30;0.30;;;17.10;99.90;;;;;;5053241;28;20213;-76
2022/06/26 01:04:21;;;;;;;0.30;0.30;;;17.10;99.90;;;;;;5054364;28;20179;-76
2022/06/26 01:06:48;;;;;;;0.30;0.30;;;17.20;99.90;;;;;;5054546;28;20198;-76
2022/06/26 01:09:13;;;;;;;0.40;0.40;;;17.30;99.90;;;;;;5053811;28;20183;-76
2022/06/26 01:11:41;;;;;;;0.40;0.40;;;17.50;73.00;;;;;;5054153;28;20195;-76
2022/06/26 01:14:08;;;;;;;0.40;0.40;;;17.60;46.10;;;;;;5054400;28;20183;-76
2022/06/26 01:16:33;;;;;;;0.40;0.40;;;17.70;34.20;;;;;;5054284;28;20215;-77
2022/06/26 01:18:59;;;;;;;0.30;0.30;;;17.80;56.50;;;;;;5053711;28;20178;-76
2022/06/26 01:21:25;;;;;;;0.50;0.50;;;17.80;64.90;;;;;;5054234;28;20237;-76
2022/06/26 01:23:52;;;;;;;0.33;0.33;;;17.90;79.30;;;;;;5054554;28;20175;-76
2022/06/26 01:26:20;;;;;;;0.30;0.30;;;17.90;99.90;;;;;;5053850;28;20640;-76
2022/06/26 01:28:45;;;;;;;0.30;0.30;;;17.90;99.90;;;;;;5053932;28;20640;-76
2022/06/26 01:31:11;;;;;;;0.33;0.33;;;17.90;90.80;;;;;;5053710;28;20181;-76
2022/06/26 01:33:37;;;;;;;0.40;0.40;;;17.90;85.90;;;;;;5054684;28;20484;-76
2022/06/26 01:36:03;;;;;;;0.30;0.30;;;18.00;53.80;;;;;;5054081;28;20250;-76
2022/06/26 01:38:29;;;;;;;0.40;0.40;;;18.00;61.50;;;;;;5054232;28;20512;-76
2022/06/26 01:40:55;;;;;;;0.30;0.30;;;18.00;91.50;;;;;;5054399;28;20183;-76
2022/06/26 01:43:27;;;;;;;0.33;0.33;;;18.00;99.90;;;;;;5054482;28;20205;-76
2022/06/26 01:45:54;;;;;;;0.37;0.37;;;18.00;95.70;;;;;;5054211;28;20179;-77
2022/06/26 01:48:21;;;;;;;0.30;0.30;;;18.00;38.90;;;;;;5055105;28;20202;-77
2022/06/26 01:50:48;;;;;;;0.33;0.33;;;18.00;59.00;;;;;;5054923;28;20187;-77
2022/06/26 01:53:15;;;;;;;0.30;0.30;;;18.00;65.60;;;;;;5054959;28;20286;-77
2022/06/26 01:55:41;;;;;;;0.33;0.33;;;17.90;85.60;;;;;;5055012;28;20254;-77
2022/06/26 01:58:07;;;;;;;0.30;0.30;;;17.90;57.20;;;;;;5054756;28;20618;-77
2022/06/26 02:00:35;;;;;;;0.30;0.30;;;18.00;35.50;;;;;;5053381;28;20248;-78
2022/06/26 02:03:01;;;;;;;0.30;0.30;;;18.00;22.90;;;;;;5053408;28;20679;-77
2022/06/26 02:05:27;;;;;;;0.40;0.40;;;17.90;64.30;;;;;;5053619;28;20207;-78
2022/06/26 02:07:52;;;;;;;0.30;0.30;;;17.90;78.60;;;;;;5053293;28;20656;-77
2022/06/26 02:15:49;;;;;;;0.30;0.30;;;18.00;97.10;;;;;;5053349;28;20225;-78
2022/06/26 02:18:14;;;;;;;0.40;0.40;;;18.00;83.00;;;;;;5053184;28;20183;-78
2022/06/26 02:20:40;;;;;;;0.30;0.30;;;18.10;66.10;;;;;;5052939;28;20195;-78
2022/06/26 02:23:06;;;;;;;0.30;0.30;;;18.10;47.50;;;;;;5053326;28;20199;-78
2022/06/26 02:25:31;;;;;;;0.40;0.40;;;18.10;45.50;;;;;;5054940;28;20552;-77
2022/06/26 02:27:57;;;;;;;0.30;0.30;;;18.20;25.00;;;;;;5054936;28;20535;-78
2022/06/26 02:30:22;;;;;;;0.40;0.40;;;18.20;21.50;;;;;;5054778;28;20186;-78
2022/06/26 02:32:48;;;;;;;0.30;0.30;;;18.20;7.70;;;;;;5054322;28;20570;-77
2022/06/26 02:35:14;;;;;;;0.30;0.30;;;18.20;31.70;;;;;;5054290;28;20205;-76
2022/06/26 02:37:39;;;;;;;0.30;0.30;;;18.20;35.60;;;;;;5053078;28;20704;-76
2022/06/26 02:40:06;;;;;;;0.30;0.30;;;18.20;63.50;;;;;;5052256;28;20651;-77
2022/06/26 02:42:32;;;;;;;0.40;0.40;;;18.20;72.40;;;;;;5052789;28;20198;-76
2022/06/26 02:44:57;;;;;;;0.30;0.30;;;18.20;95.20;;;;;;5053035;28;20179;-76
2022/06/26 02:47:23;;;;;;;0.30;0.30;;;18.20;98.20;;;;;;5052211;28;20194;-77
2022/06/26 02:49:48;;;;;;;0.40;0.40;;;18.20;99.90;;;;;;5052501;28;20173;-77
2022/06/26 02:52:14;;;;;;;0.40;0.40;;;18.10;99.90;;;;;;5052479;28;20203;-77
2022/06/26 02:54:39;;;;;;;0.40;0.40;;;18.10;99.90;;;;;;5052525;28;20168;-77
2022/06/26 02:57:05;;;;;;;0.33;0.33;;;18.10;99.90;;;;;;5052151;28;20248;-77
2022/06/26 02:59:30;;;;;;;0.30;0.30;;;18.10;99.90;;;;;;5051877;28;20174;-77
2022/06/26 03:01:57;;;;;;;0.40;0.40;;;18.00;99.90;;;;;;5051906;28;20668;-77
2022/06/26 03:04:23;;;;;;;0.30;0.30;;;18.00;99.90;;;;;;5052449;28;20202;-77
2022/06/26 03:06:49;;;;;;;0.30;0.30;;;18.00;99.90;;;;;;5052063;28;20175;-77
2022/06/26 03:09:15;;;;;;;0.30;0.30;;;17.90;99.90;;;;;;5051657;28;20671;-77
2022/06/26 03:11:41;;;;;;;0.30;0.30;;;17.90;99.90;;;;;;5052028;28;20222;-77
2022/06/26 03:14:07;;;;;;;0.30;0.30;;;17.90;99.90;;;;;;5052091;28;20198;-77
2022/06/26 03:16:33;;;;;;;0.40;0.40;;;17.90;99.90;;;;;;5051769;28;20222;-77
2022/06/26 03:18:59;;;;;;;0.30;0.30;;;17.90;88.00;;;;;;5051631;28;20262;-77
2022/06/26 03:21:24;;;;;;;0.33;0.33;;;18.00;53.20;;;;;;5050459;28;20548;-77
2022/06/26 03:24:02;;;;;;;0.40;0.40;;;18.00;45.30;;;;;;5051337;28;20170;-77
2022/06/26 03:26:32;;;;;;;0.30;0.30;;;18.10;55.70;;;;;;5051894;28;20234;-77
2022/06/26 03:28:59;;;;;;;0.30;0.30;;;18.10;96.10;;;;;;5051398;28;20202;-77
2022/06/26 03:31:25;;;;;;;0.40;0.40;;;18.00;99.90;;;;;;5051628;28;20190;-77
2022/06/26 03:33:51;;;;;;;0.40;0.40;;;18.00;99.90;;;;;;5051954;28;20174;-77
2022/06/26 03:36:17;;;;;;;0.30;0.30;;;17.90;99.90;;;;;;5051780;28;20667;-77
2022/06/26 03:38:43;;;;;;;0.30;0.30;;;17.90;99.90;;;;;;5052000;28;20190;-77
2022/06/26 03:41:10;;;;;;;0.30;0.30;;;17.90;99.90;;;;;;5051489;28;20179;-77
2022/06/26 03:43:35;;;;;;;0.30;0.30;;;17.90;99.90;;;;;;5051731;28;20186;-77
2022/06/26 03:46:01;;;;;;;0.30;0.30;;;17.90;99.90;;;;;;5052220;28;20167;-77
2022/06/26 03:48:27;;;;;;;0.30;0.30;;;18.00;99.90;;;;;;5051801;28;20210;-77
2022/06/26 03:50:52;;;;;;;0.40;0.40;;;18.00;99.90;;;;;;5051246;28;20594;-77
2022/06/26 03:53:18;;;;;;;0.30;0.30;;;17.90;99.90;;;;;;5051506;28;20195;-77
2022/06/26 03:55:43;;;;;;;0.30;0.30;;;17.80;99.90;;;;;;5051397;28;20210;-77
2022/06/26 03:58:09;;;;;;;0.30;0.30;;;17.80;99.90;;;;;;5051266;28;20202;-77
2022/06/26 04:00:34;;;;;;;0.40;0.40;;;17.80;99.90;;;;;;5050799;28;20625;-77
2022/06/26 04:03:05;;;;;;;0.40;0.40;;;17.90;99.90;;;;;;5051512;28;20206;-77
2022/06/26 04:05:31;;;;;;;0.30;0.30;;;18.00;99.90;;;;;;5051330;28;20266;-77
2022/06/26 04:07:57;;;;;;;0.30;0.30;;;18.00;99.90;;;;;;5051489;28;20172;-77
2022/06/26 04:10:23;;;;;;;0.40;0.40;;;18.10;99.90;;;;;;5048485;28;20652;-78
2022/06/26 04:12:49;;;;;;;0.30;0.30;;;18.10;99.90;;;;;;5049550;28;20214;-78
2022/06/26 04:15:14;;;;;;;0.30;0.30;;;18.20;99.90;;;;;;5044731;28;20180;-77
2022/06/26 04:17:40;;;;;;;0.30;0.30;;;18.20;99.90;;;;;;5033612;28;20204;-77
2022/06/26 04:20:06;;;;;;;0.30;0.30;;;18.30;99.90;;;;;;5051297;28;20181;-77
2022/06/26 04:22:32;;;;;;;0.40;0.40;;;18.40;99.90;;;;;;5051638;28;20234;-77
2022/06/26 04:24:57;;;;;;;0.40;0.40;;;18.40;99.90;;;;;;5051775;28;20199;-77
2022/06/26 04:27:23;;;;;;;0.40;0.40;;;18.40;99.90;;;;;;5049809;28;20645;-77
2022/06/26 04:29:49;;;;;;;0.30;0.30;;;18.40;99.90;;;;;;5034262;28;20175;-77
2022/06/26 04:32:14;;;;;;;0.30;0.30;;;18.40;99.90;;;;;;5044397;28;20202;-77
2022/06/26 04:34:40;;;;;;;0.30;0.30;;;18.40;99.90;;;;;;5050074;28;20179;-76
2022/06/26 04:37:05;;;;;;;0.40;0.40;;;18.50;93.10;;;;;;5054944;28;20230;-77
2022/06/26 04:39:31;;;;;;;0.30;0.30;;;18.50;48.00;;;;;;5054550;28;20176;-76
2022/06/26 04:41:56;;;;;;;0.30;0.30;;;18.50;39.30;;;;;;5054852;28;20591;-76
2022/06/26 04:44:22;;;;;;;0.33;0.33;;;18.50;35.30;;;;;;5054667;28;20640;-76
2022/06/26 04:49:23;;;;;;;0.30;0.30;;;18.60;50.30;;;;;;5053825;28;20569;-79
2022/06/26 04:51:49;;;;;;;0.30;0.30;;;18.60;74.40;;;;;;5056691;28;20209;-79
2022/06/26 04:54:14;;;;;;;0.40;0.40;;;18.60;93.20;;;;;;5057036;28;20163;-80
2022/06/26 04:56:40;;;;;;;0.33;0.33;;;18.70;67.80;;;;;;5057167;28;20199;-79
2022/06/26 04:59:06;;;;;;;0.30;0.30;;;18.70;80.80;;;;;;5057259;28;20175;-79
2022/06/26 05:01:31;;;;;;;0.30;0.30;;;18.60;99.90;;;;;;5056847;28;20631;-80
2022/06/26 05:03:58;;;;;;;0.33;0.33;;;18.70;97.50;;;;;;5055410;28;20179;-77
2022/06/26 05:06:24;;;;;;;0.40;0.40;;;18.70;99.60;;;;;;5055017;28;20644;-77
2022/06/26 05:08:50;;;;;;;0.40;0.40;;;18.70;99.90;;;;;;5055227;28;20748;-79
2022/06/26 05:11:16;;;;;;;0.30;0.30;;;18.70;99.90;;;;;;5054380;28;20254;-78
2022/06/26 05:13:41;;;;;;;0.30;0.30;;;18.70;99.90;;;;;;5054774;28;20175;-77
2022/06/26 05:16:07;;;;;;;0.40;0.40;;;18.70;99.90;;;;;;5054986;28;20202;-79
2022/06/26 05:18:33;;;;;;;0.40;0.40;;;18.70;99.90;;;;;;5055004;28;20267;-77
2022/06/26 05:20:59;;;;;;;0.30;0.30;;;18.70;99.90;;;;;;5054278;28;20180;-77
2022/06/26 05:23:24;;;;;;;0.30;0.30;;;18.80;99.90;;;;;;5054741;28;20264;-79
2022/06/26 05:25:51;;;;;;;0.40;0.40;;;18.90;62.60;;;;;;5054984;28;20178;-79
2022/06/26 05:28:17;;;;;;;0.37;0.37;;;19.00;43.80;;;;;;5055081;28;20182;-79
2022/06/26 05:30:43;;;;;;;0.40;0.40;;;19.00;32.90;;;;;;5055723;28;20229;-77
2022/06/26 05:33:09;;;;;;;0.30;0.30;;;19.00;30.40;;;;;;5055342;28;20202;-78
2022/06/26 05:35:35;;;;;;;0.40;0.40;;;19.10;40.10;;;;;;5055543;28;20175;-79
2022/06/26 05:38:01;;;;;;;0.30;0.30;;;19.10;6.20;;;;;;5058087;28;20214;-78
2022/06/26 05:40:27;;;;;;;0.33;0.33;;;19.10;18.40;;;;;;5056757;28;20176;-77
2022/06/26 05:42:56;;;;;;;0.30;0.30;;;19.20;9.90;;;;;;5054060;28;20222;-78
2022/06/26 05:45:22;;;;;;;0.40;0.40;;;19.20;3.90;;;;;;5054718;28;20182;-78
2022/06/26 05:47:49;;;;;;;0.30;0.30;;;19.40;1.00;;;;;;5053276;28;20210;-77
2022/06/26 05:50:14;;;;;;;0.40;0.40;;;19.40;1.00;;;;;;5054130;28;20175;-79
2022/06/26 05:52:40;;;;;;;0.30;0.30;;;19.30;1.00;;;;;;5054169;28;20205;-79
2022/06/26 05:55:07;;;;;;;0.30;0.30;;;19.30;1.00;;;;;;5054411;28;20175;-78
2022/06/26 05:57:32;;;;;;;0.40;0.40;;;19.30;1.00;;;;;;5054583;28;20226;-79
2022/06/26 05:59:58;;;;;;;0.40;0.40;;;19.30;1.00;;;;;;5055207;28;20172;-78
2022/06/26 06:02:24;;;;;;;0.37;0.37;;;19.30;1.00;;;;;;5059516;28;20203;-78
2022/06/26 06:04:49;;;;;;;0.40;0.40;;;19.40;1.00;;;;;;5059189;28;20175;-78
2022/06/26 06:07:15;;;;;;;0.33;0.33;;;19.40;1.00;;;;;;5054644;28;20187;-80
2022/06/26 06:09:41;;;;;;;0.30;0.30;;;19.50;1.00;;;;;;5054035;28;20729;-78
2022/06/26 06:12:06;;;;;;;0.47;0.47;;;19.60;1.00;;;;;;5055054;28;20191;-79
2022/06/26 06:14:32;;;;;;;0.40;0.40;;;19.60;1.00;;;;;;5054112;28;20176;-78
2022/06/26 06:17:35;;;;;;;0.47;0.47;;;19.60;1.00;;;;;;5053634;28;20229;-77
2022/06/26 06:19:43;;;;;;;0.40;0.40;;;19.70;1.00;;;;;;5053451;28;20171;-78
2022/06/26 06:22:10;;;;;;;0.30;0.30;;;19.80;1.00;;;;;;5053513;28;20227;-77
2022/06/26 06:24:35;;;;;;;0.30;0.30;;;19.80;1.00;;;;;;5052264;28;20273;-79
2022/06/26 06:27:01;;;;;;;0.30;0.30;;;19.80;1.00;;;;;;5053776;28;20201;-79
2022/06/26 06:29:26;;;;;;;0.40;0.40;;;19.90;1.00;;;;;;5053188;28;20199;-79
2022/06/26 06:31:52;;;;;;;0.30;0.30;;;20.00;1.00;;;;;;5053698;28;20736;-79
2022/06/26 06:34:17;;;;;;;0.47;0.47;;;20.20;1.00;;;;;;5053848;28;20181;-79
2022/06/26 06:36:42;;;;;;;0.40;0.40;;;20.30;1.00;;;;;;5053403;28;20299;-78
2022/06/26 06:39:08;;;;;;;0.30;0.30;;;20.30;1.00;;;;;;5053461;28;20262;-79
2022/06/26 06:41:33;;;;;;;0.30;0.30;;;20.50;1.00;;;;;;5053948;28;20248;-78
2022/06/26 06:43:59;;;;;;;0.40;0.40;;;20.50;1.00;;;;;;5053581;28;20720;-77
2022/06/26 06:46:24;;;;;;;0.30;0.30;;;20.80;1.00;;;;;;5053850;28;20262;-79
2022/06/26 06:48:50;;;;;;;0.30;0.30;;;20.90;1.00;;;;;;5052850;28;20183;-82
2022/06/26 06:51:15;;;;;;;0.40;0.40;;;21.00;99.90;;;;;;5053897;28;20177;-78
2022/06/26 06:53:41;;;;;;;0.30;0.30;;;21.20;1.00;;;;;;5055426;28;20182;-82
2022/06/26 06:56:07;;;;;;;0.30;0.30;;;21.30;99.90;;;;;;5053856;28;20524;-78
2022/06/26 06:58:32;;;;;;;0.33;0.33;;;21.40;99.90;;;;;;5054235;28;20175;-78
2022/06/26 07:00:58;;;;;;;0.30;0.30;;;21.60;1.00;;;;;;5054084;28;20650;-79
2022/06/26 07:03:24;;;;;;;0.30;0.30;;;21.70;1.00;;;;;;5054178;28;20280;-79
2022/06/26 07:05:49;;;;;;;0.40;0.40;;;21.90;1.00;;;;;;5054419;28;20179;-78
2022/06/26 07:08:15;;;;;;;0.30;0.30;;;22.00;1.00;;;;;;5054487;28;20163;-78
2022/06/26 07:10:40;;;;;;;0.40;0.40;;;22.10;57.60;;;;;;5053507;28;20190;-79
2022/06/26 07:13:06;;;;;;;0.30;0.30;;;22.40;1.00;;;;;;5053217;28;20223;-77
2022/06/26 07:15:31;;;;;;;0.30;0.30;;;22.50;1.00;;;;;;5053235;28;20191;-78
2022/06/26 07:17:57;;;;;;;0.30;0.30;;;22.60;99.90;;;;;;5052924;28;20223;-79
2022/06/26 07:20:23;;;;;;;0.30;0.30;;;22.90;99.90;;;;;;5052851;28;20205;-78
2022/06/26 07:22:49;;;;;;;0.40;0.40;;;23.00;99.90;;;;;;5053381;28;20198;-78
2022/06/26 07:25:14;;;;;;;0.30;0.30;;;23.00;1.00;;;;;;5052796;28;20262;-78
2022/06/26 07:27:40;;;;;;;0.30;0.30;;;23.10;1.00;;;;;;5053115;28;20190;-79
2022/06/26 07:30:06;;;;;;;0.40;0.40;;;23.10;1.00;;;;;;5052392;28;20651;-77
2022/06/26 07:32:32;;;;;;;0.30;0.30;;;23.20;99.90;;;;;;5052517;28;20759;-80
2022/06/26 07:34:58;;;;;;;0.30;0.30;;;23.10;99.90;;;;;;5052310;28;20347;-77
2022/06/26 07:37:24;;;;;;;0.30;0.30;;;23.20;99.90;;;;;;5051955;28;20664;-77
2022/06/26 07:39:49;;;;;;;0.30;0.30;;;23.40;1.00;;;;;;5053486;28;20171;-77
2022/06/26 07:42:15;;;;;;;0.30;0.30;;;23.50;12.10;;;;;;5058264;28;20194;-77
2022/06/26 07:44:40;;;;;;;0.30;0.30;;;23.80;1.00;;;;;;5057181;28;20170;-78
2022/06/26 07:47:06;;;;;;;0.23;0.23;;;24.00;1.00;;;;;;5056518;28;20242;-77
2022/06/26 07:49:31;;;;;;;0.30;0.30;;;24.20;1.00;;;;;;5057351;28;20228;-79
2022/06/26 07:51:57;;;;;;;0.20;0.20;;;24.50;1.00;;;;;;5050536;28;20195;-77
2022/06/26 07:54:22;;;;;;;0.30;0.30;;;25.00;1.00;;;;;;5057691;28;20251;-77
2022/06/26 07:56:50;;;;;;;0.30;0.30;;;25.40;1.00;;;;;;5057106;28;20741;-78
2022/06/26 07:59:16;;;;;;;0.40;0.40;;;25.90;1.00;;;;;;5056777;28;20171;-77
2022/06/26 08:01:41;;;;;;;0.37;0.37;;;26.30;1.00;;;;;;5057278;28;20225;-77
2022/06/26 08:04:08;;;;;;;0.40;0.40;;;26.80;1.00;;;;;;5058328;28;20167;-78
2022/06/26 08:06:33;;;;;;;0.40;0.40;;;27.20;1.00;;;;;;5058062;28;20229;-77
2022/06/26 08:08:59;;;;;;;0.40;0.40;;;27.50;1.00;;;;;;5055427;28;20644;-78
2022/06/26 08:11:24;;;;;;;0.40;0.40;;;27.90;1.00;;;;;;5063242;28;20179;-77
2022/06/26 08:13:50;;;;;;;0.40;0.40;;;28.30;1.00;;;;;;5063926;28;20186;-77
2022/06/26 08:16:16;;;;;;;0.50;0.50;;;28.40;1.00;;;;;;5061909;28;20716;-78
2022/06/26 08:18:41;;;;;;;0.40;0.40;;;28.80;1.00;;;;;;5062593;28;20177;-77
2022/06/26 08:23:51;;;;;;;0.50;0.50;;;29.20;1.00;;;;;;5070776;28;20232;-79
2022/06/26 08:26:17;;;;;;;0.50;0.50;;;29.40;1.00;;;;;;5066788;28;20281;-77
2022/06/26 08:28:43;;;;;;;0.50;0.50;;;29.60;1.00;;;;;;5070472;28;20253;-79
2022/06/26 08:31:09;;;;;;;0.60;0.60;;;29.90;1.00;;;;;;5066677;28;20205;-82
2022/06/26 08:33:34;;;;;;;0.60;0.60;;;30.10;1.00;;;;;;5057060;28;20240;-79
2022/06/26 08:36:00;;;;;;;0.60;0.60;;;30.40;1.00;;;;;;5056404;28;20239;-79
2022/06/26 08:38:25;;;;;;;0.50;0.50;;;30.50;1.00;;;;;;5055606;28;20179;-80
2022/06/26 08:40:51;;;;;;;0.53;0.53;;;30.80;1.00;;;;;;5055953;28;20233;-79
2022/06/26 08:43:21;;;;;;;0.60;0.60;;;30.90;1.00;;;;;;5056353;28;20282;-79
2022/06/26 08:45:50;;;;;;;0.40;0.40;;;31.10;1.00;;;;;;5055524;28;20172;-79
2022/06/26 08:48:18;;;;;;;0.60;0.60;;;31.10;1.00;;;;;;5055562;28;20210;-77
2022/06/26 08:50:44;;;;;;;0.60;0.60;;;31.20;1.00;;;;;;5055076;28;20687;-79
2022/06/26 08:53:10;;;;;;;0.50;0.50;;;31.10;1.00;;;;;;5049507;28;20187;-79
2022/06/26 08:55:36;;;;;;;0.60;0.60;;;31.10;1.00;;;;;;5055496;28;20183;-78
2022/06/26 08:58:01;;;;;;;0.50;0.50;;;31.10;1.00;;;;;;5055491;28;20215;-78
2022/06/26 09:00:27;;;;;;;0.50;0.50;;;31.30;1.00;;;;;;5054597;28;20175;-80
2022/06/26 09:02:53;;;;;;;0.60;0.60;;;31.30;1.00;;;;;;5056140;28;20270;-78
2022/06/26 09:05:18;;;;;;;0.47;0.47;;;31.30;1.00;;;;;;5055689;28;20668;-78
2022/06/26 09:07:48;;;;;;;0.50;0.50;;;31.40;1.00;;;;;;5055503;28;20171;-79
2022/06/26 09:10:17;;;;;;;0.50;0.50;;;31.50;1.00;;;;;;5055575;28;20255;-81
2022/06/26 09:12:43;;;;;;;0.63;0.63;;;31.60;1.00;;;;;;5055392;28;20278;-79
2022/06/26 09:15:16;;;;;;;0.60;0.60;;;31.80;1.00;;;;;;5055527;28;20262;-80
2022/06/26 09:17:42;;;;;;;0.50;0.50;;;32.00;1.00;;;;;;5055490;28;20219;-79
2022/06/26 09:20:08;;;;;;;0.60;0.60;;;32.00;1.00;;;;;;5055259;28;20167;-77
2022/06/26 09:22:34;;;;;;;0.50;0.50;;;32.00;1.00;;;;;;5054588;28;20190;-79
2022/06/26 09:25:00;;;;;;;0.50;0.50;;;31.90;1.00;;;;;;5055244;28;20535;-77
2022/06/26 09:27:26;;;;;;;0.50;0.50;;;32.00;1.00;;;;;;5055371;28;20179;-78
2022/06/26 09:29:54;;;;;;;0.57;0.57;;;32.20;1.00;;;;;;5054880;28;20174;-80
2022/06/26 09:32:21;;;;;;;0.50;0.50;;;32.30;1.00;;;;;;5055388;28;20329;-80
2022/06/26 09:34:54;;;;;;;0.43;0.43;;;32.30;1.00;;;;;;5056312;28;20358;-81
2022/06/26 09:37:21;;;;;;;0.50;0.50;;;32.30;1.00;;;;;;5056422;28;20210;-80
2022/06/26 09:39:47;;;;;;;0.50;0.50;;;32.40;1.00;;;;;;5058487;28;20178;-80
2022/06/26 09:42:16;;;;;;;0.50;0.50;;;32.30;1.00;;;;;;5058613;28;20195;-77
2022/06/26 09:44:50;;;;;;;0.50;0.50;;;32.30;1.00;;;;;;5054089;28;20274;-80
2022/06/26 09:47:31;;;;;;;0.40;0.40;;;32.40;1.00;;;;;;5054630;28;20179;-78
2022/06/26 09:49:58;;;;;;;0.40;0.40;;;32.30;1.00;;;;;;5054610;28;20186;-78
2022/06/26 09:52:29;;;;;;;0.50;0.50;;;32.50;1.00;;;;;;5054542;28;20195;-78
2022/06/26 09:54:56;;;;;;;0.50;0.50;;;32.50;1.00;;;;;;5055133;28;20182;-77
2022/06/26 09:57:22;;;;;;;0.60;0.60;;;32.70;1.00;;;;;;5054480;28;20215;-81
2022/06/26 09:59:48;;;;;;;0.45;0.45;;;32.60;1.00;;;;;;5054404;28;20187;-77
2022/06/26 10:07:49;;;;;;;0.60;0.60;;;32.00;1.00;;;;;;5054745;28;20185;-77
2022/06/26 10:10:19;;;;;;;0.57;0.57;;;32.20;1.00;;;;;;5053931;28;20258;-77
2022/06/26 10:12:47;;;;;;;0.50;0.50;;;32.30;1.00;;;;;;5054496;28;20195;-80
2022/06/26 10:15:15;;;;;;;0.57;0.57;;;32.20;1.00;;;;;;5054591;28;20175;-78
2022/06/26 10:17:59;;;;;;;0.52;0.52;;;32.10;1.00;;;;;;5054239;28;20554;-78
2022/06/26 10:20:28;;;;;;;0.50;0.50;;;32.20;1.00;;;;;;5053925;28;20175;-78
2022/06/26 10:22:54;;;;;;;0.63;0.63;;;32.50;1.00;;;;;;5053983;28;20675;-79
2022/06/26 10:25:28;;;;;;;0.40;0.40;;;32.70;1.00;;;;;;5054222;28;20304;-78
2022/06/26 10:27:54;;;;;;;0.33;0.33;;;32.80;1.00;;;;;;5054001;28;20209;-78
2022/06/26 10:30:22;;;;;;;0.38;0.38;;;32.80;1.00;;;;;;5053824;28;20656;-78
2022/06/26 10:33:19;;;;;;;0.50;0.50;;;32.70;1.00;;;;;;5053794;28;20187;-78
2022/06/26 10:35:49;;;;;;;0.60;0.60;;;32.60;1.00;;;;;;5053886;28;20174;-78
2022/06/26 10:38:26;;;;;;;0.30;0.30;;;32.60;1.00;;;;;;5053995;28;20714;-78
2022/06/26 10:44:14;;;;;;;0.37;0.37;;;32.90;1.00;;;;;;5034715;28;20183;-79
2022/06/26 10:46:50;;;;;;;0.50;0.50;;;32.80;1.00;;;;;;5034031;28;20585;-80
2022/06/26 10:49:16;;;;;;;0.40;0.40;;;33.00;1.00;;;;;;5045386;28;20667;-78
2022/06/26 10:51:44;;;;;;;0.50;0.50;;;33.10;1.00;;;;;;5053132;28;20764;-78
2022/06/26 10:54:18;;;;;;;0.55;0.55;;;33.00;1.00;;;;;;5053208;28;20168;-81
2022/06/26 10:56:46;;;;;;;0.60;0.60;;;33.10;1.00;;;;;;5052318;28;20388;-81
2022/06/26 10:59:17;;;;;;;0.40;0.40;;;33.10;1.00;;;;;;5046201;28;20185;-79
2022/06/26 11:01:43;;;;;;;0.50;0.50;;;33.10;1.00;;;;;;5051043;28;20191;-79
2022/06/26 11:04:08;;;;;;;0.50;0.50;;;33.20;1.00;;;;;;5053410;28;20228;-78
2022/06/26 11:06:40;;;;;;;0.43;0.43;;;33.40;1.00;;;;;;5053521;28;20213;-78
2022/06/26 11:09:07;;;;;;;0.30;0.30;;;33.80;1.00;;;;;;5051103;28;20237;-80
2022/06/26 11:11:32;;;;;;;0.38;0.38;;;33.50;1.00;;;;;;5053049;28;20206;-78
2022/06/26 11:14:00;;;;;;;0.30;0.30;;;33.50;1.00;;;;;;5049027;28;20175;-79
2022/06/26 11:16:31;;;;;;;0.20;0.20;;;33.20;1.00;;;;;;5052434;28;20695;-78
2022/06/26 11:18:58;;;;;;;0.30;0.30;;;32.70;1.00;;;;;;5052171;28;20221;-78
2022/06/26 11:21:25;;;;;;;0.30;0.30;;;32.60;1.00;;;;;;5053193;28;20183;-78
2022/06/26 11:23:51;;;;;;;0.20;0.20;;;32.40;1.00;;;;;;5052790;28;20312;-80
2022/06/26 11:26:20;;;;;;;0.70;0.70;;;32.10;1.00;;;;;;5053150;28;20238;-77
2022/06/26 11:28:52;;;;;;;0.50;0.50;;;32.00;1.00;;;;;;5053813;28;20176;-79
2022/06/26 11:31:24;;;;;;;0.45;0.45;;;32.00;1.00;;;;;;5053770;28;20266;-78
2022/06/26 11:33:50;;;;;;;0.50;0.50;;;32.40;1.00;;;;;;5056773;28;20181;-78
2022/06/26 11:36:17;;;;;;;0.40;0.40;;;33.00;1.00;;;;;;5066958;28;20239;-78
2022/06/26 11:38:53;;;;;;;0.30;0.30;;;33.10;1.00;;;;;;5066433;28;20236;-77
2022/06/26 11:41:19;;;;;;;0.30;0.30;;;33.20;1.00;;;;;;5064650;28;20194;-78
2022/06/26 11:43:47;;;;;;;0.22;0.22;;;33.20;1.00;;;;;;5065460;28;20243;-79
2022/06/26 11:46:12;;;;;;;0.40;0.40;;;33.10;1.00;;;;;;5061511;28;20186;-78
2022/06/26 11:48:38;;;;;;;0.20;0.20;;;33.30;1.00;;;;;;5044666;28;20200;-79
2022/06/26 11:51:04;;;;;;;0.32;0.32;;;33.50;1.00;;;;;;5041953;28;20175;-79
2022/06/26 11:53:32;;;;;;;0.50;0.50;;;33.70;1.00;;;;;;5046210;28;20209;-80
2022/06/26 11:56:00;;;;;;;0.38;0.38;;;33.70;1.00;;;;;;5047336;28;20213;-77
2022/06/26 11:58:33;;;;;;;0.20;0.20;;;33.70;1.00;;;;;;5050852;28;20198;-80
2022/06/26 12:01:10;;;;;;;0.50;0.50;;;33.70;1.00;;;;;;5049532;28;20206;-78
2022/06/26 12:03:56;;;;;;;0.50;0.50;;;33.80;1.00;;;;;;5053271;28;20190;-79
2022/06/26 12:06:40;;;;;;;0.38;0.38;;;33.60;1.00;;;;;;5038576;28;20187;-78
2022/06/26 12:09:25;;;;;;;0.38;0.38;;;33.60;1.00;;;;;;5051879;28;20208;-80
2022/06/26 12:11:54;;;;;;;0.50;0.50;;;33.30;1.00;;;;;;5051912;28;20509;-81
2022/06/26 12:14:21;;;;;;;0.40;0.40;;;33.10;1.00;;;;;;5052144;28;20252;-79
2022/06/26 12:16:51;;;;;;;0.30;0.30;;;33.00;1.00;;;;;;5052797;28;20246;-80
2022/06/26 12:19:20;;;;;;;0.40;0.40;;;33.00;1.00;;;;;;5057866;28;20179;-79
2022/06/26 12:21:51;;;;;;;0.47;0.47;;;32.80;1.00;;;;;;5052037;28;20203;-80
2022/06/26 12:24:18;;;;;;;0.50;0.50;;;32.80;1.00;;;;;;5051570;28;20629;-78
2022/06/26 12:26:45;;;;;;;0.30;0.30;;;33.00;1.00;;;;;;5051593;28;20262;-78
2022/06/26 12:29:12;;;;;;;0.32;0.32;;;33.00;1.00;;;;;;5062314;28;20719;-79
2022/06/26 12:31:39;;;;;;;0.40;0.40;;;33.30;1.00;;;;;;5052277;28;20195;-79
2022/06/26 12:34:06;;;;;;;0.40;0.40;;;33.20;1.00;;;;;;5052769;28;20206;-79
2022/06/26 12:36:33;;;;;;;0.60;0.60;;;33.20;1.00;;;;;;5052203;28;20215;-78
2022/06/26 12:38:59;;;;;;;0.40;0.40;;;33.10;1.00;;;;;;5050185;28;20187;-78
2022/06/26 12:41:24;;;;;;;0.60;0.60;;;33.00;1.00;;;;;;5053645;28;20209;-79
2022/06/26 12:43:55;;;;;;;0.40;0.40;;;32.90;1.00;;;;;;5053960;28;20182;-78
2022/06/26 12:46:22;;;;;;;0.40;0.40;;;32.90;1.00;;;;;;5052653;28;20190;-78
2022/06/26 12:48:48;;;;;;;0.45;0.45;;;32.80;1.00;;;;;;5050863;28;20806;-79
2022/06/26 12:51:15;;;;;;;0.60;0.60;;;32.80;1.00;;;;;;5058008;28;20207;-78
2022/06/26 12:53:42;;;;;;;0.50;0.50;;;32.60;1.00;;;;;;5053635;28;20686;-79
2022/06/26 12:56:08;;;;;;;0.50;0.50;;;32.70;1.00;;;;;;5046663;28;20186;-79
2022/06/26 12:58:34;;;;;;;0.60;0.60;;;32.90;1.00;;;;;;5055932;28;20348;-78
2022/06/26 13:01:00;;;;;;;0.60;0.60;;;33.00;1.00;;;;;;5055224;28;20672;-79
2022/06/26 13:03:26;;;;;;;0.60;0.60;;;32.80;1.00;;;;;;5054671;28;20209;-77
2022/06/26 13:05:51;;;;;;;0.60;0.60;;;32.80;1.00;;;;;;5054829;28;20167;-79
2022/06/26 13:08:17;;;;;;;0.50;0.50;;;32.70;1.00;;;;;;5047670;28;20179;-79
2022/06/26 13:10:44;;;;;;;0.50;0.50;;;32.60;1.00;;;;;;5053508;28;20410;-78